<?xml version="1.0" encoding="UTF-8" standalone="no" ?>
<gpx xmlns="http://www.topografix.com/GPX/1/1" xmlns:xsi="http://www.w3.org/2001/XMLSchema-instance" xsi:schemaLocation="http://www.topografix.com/GPX/1/1 http://www.topografix.com/GPX/1/1/gpx.xsd" version="1.1" creator="VisuGPX - https://www.visugpx.com">
  <metadata>
    <name>Peyre en Aubrac - 22km</name>
    <desc><![CDATA[fait en 05/2019 - au départ des Chalets de Noziere via le Truc de L'homme]]></desc>
  </metadata>
  <trk>
    <name><![CDATA[chgt Truc de l'Homme - Fau de Peyre 22,5 km]]></name>
    <extensions>
      <line xmlns="http://www.topografix.com/GPX/gpx_style/0/2">
        <color>0000FF</color>
        <width>4</width>
      </line>
    </extensions>
    <trkseg>
      <trkpt lat="44.75722" lon="3.26765">
        <ele>1006</ele>
        <time>2019-02-15T15:43:38Z</time>
      </trkpt>
      <trkpt lat="44.75849" lon="3.2679">
        <ele>1022</ele>
        <time>2019-02-15T15:44:38Z</time>
      </trkpt>
      <trkpt lat="44.75973" lon="3.26721">
        <ele>1033.984375</ele>
      </trkpt>
      <trkpt lat="44.75973" lon="3.26721">
        <ele>1033.984375</ele>
      </trkpt>
      <trkpt lat="44.76106" lon="3.2653">
        <ele>1047</ele>
        <time>2019-02-15T15:45:38Z</time>
      </trkpt>
      <trkpt lat="44.76189" lon="3.26308">
        <ele>1056.296875</ele>
      </trkpt>
      <trkpt lat="44.76327" lon="3.26178">
        <ele>1065</ele>
        <time>2019-02-15T15:46:38Z</time>
      </trkpt>
      <trkpt lat="44.7632" lon="3.26178">
        <ele>1065</ele>
        <time>2019-02-15T15:47:38Z</time>
      </trkpt>
      <trkpt lat="44.76647" lon="3.25773">
        <ele>1068.99609375</ele>
      </trkpt>
      <trkpt lat="44.76961" lon="3.25535">
        <ele>1071</ele>
        <time>2019-02-15T15:48:38Z</time>
      </trkpt>
      <trkpt lat="44.76914" lon="3.25443">
        <ele>1084</ele>
        <time>2019-02-15T15:49:38Z</time>
      </trkpt>
      <trkpt lat="44.77023" lon="3.25241">
        <ele>1101</ele>
        <time>2019-02-15T15:50:38Z</time>
      </trkpt>
      <trkpt lat="44.77066" lon="3.25198">
        <ele>1101</ele>
        <time>2019-02-15T15:51:38Z</time>
      </trkpt>
      <trkpt lat="44.77005" lon="3.25127">
        <ele>1111</ele>
        <time>2019-02-15T15:52:38Z</time>
      </trkpt>
      <trkpt lat="44.77059" lon="3.25002">
        <ele>1108</ele>
        <time>2019-02-15T15:53:38Z</time>
      </trkpt>
      <trkpt lat="44.77077" lon="3.24917">
        <ele>1102</ele>
        <time>2019-02-15T15:54:38Z</time>
      </trkpt>
      <trkpt lat="44.77005" lon="3.24739">
        <ele>1092</ele>
        <time>2019-02-15T15:55:38Z</time>
      </trkpt>
      <trkpt lat="44.77062" lon="3.24593">
        <ele>1089</ele>
        <time>2019-02-15T15:56:38Z</time>
      </trkpt>
      <trkpt lat="44.77062" lon="3.24389">
        <ele>1089</ele>
        <time>2019-02-15T15:57:38Z</time>
      </trkpt>
      <trkpt lat="44.77037" lon="3.24172">
        <ele>1093</ele>
        <time>2019-02-15T15:58:38Z</time>
      </trkpt>
      <trkpt lat="44.77015" lon="3.23858">
        <ele>1099</ele>
        <time>2019-02-15T15:59:38Z</time>
      </trkpt>
      <trkpt lat="44.76927" lon="3.23731">
        <ele>1102.2265625</ele>
      </trkpt>
      <trkpt lat="44.76925" lon="3.23613">
        <ele>1111</ele>
        <time>2019-02-15T16:00:38Z</time>
      </trkpt>
      <trkpt lat="44.76971" lon="3.23563">
        <ele>1110.88671875</ele>
      </trkpt>
      <trkpt lat="44.76823" lon="3.23435">
        <ele>1134</ele>
        <time>2019-02-15T16:01:38Z</time>
      </trkpt>
      <trkpt lat="44.76841" lon="3.23389">
        <ele>1138</ele>
        <time>2019-02-15T16:02:38Z</time>
      </trkpt>
      <trkpt lat="44.7691" lon="3.23322">
        <ele>1141</ele>
        <time>2019-02-15T16:03:38Z</time>
      </trkpt>
      <trkpt lat="44.76918" lon="3.23297">
        <ele>1143</ele>
        <time>2019-02-15T16:04:38Z</time>
      </trkpt>
      <trkpt lat="44.76914" lon="3.23246">
        <ele>1150</ele>
        <time>2019-02-15T16:05:38Z</time>
      </trkpt>
      <trkpt lat="44.76889" lon="3.23226">
        <ele>1154</ele>
        <time>2019-02-15T16:06:38Z</time>
      </trkpt>
      <trkpt lat="44.76809" lon="3.2297">
        <ele>1166</ele>
        <time>2019-02-15T16:07:38Z</time>
      </trkpt>
      <trkpt lat="44.76628" lon="3.22787">
        <ele>1178</ele>
        <time>2019-02-15T16:08:38Z</time>
      </trkpt>
      <trkpt lat="44.76421" lon="3.22486">
        <ele>1183</ele>
        <time>2019-02-15T16:09:38Z</time>
      </trkpt>
      <trkpt lat="44.76262" lon="3.22154">
        <ele>1177</ele>
        <time>2019-02-15T16:10:38Z</time>
      </trkpt>
      <trkpt lat="44.76186" lon="3.22016">
        <ele>1177</ele>
        <time>2019-02-15T16:11:38Z</time>
      </trkpt>
      <trkpt lat="44.76171" lon="3.2197">
        <ele>1176</ele>
        <time>2019-02-15T16:12:38Z</time>
      </trkpt>
      <trkpt lat="44.75899" lon="3.21654">
        <ele>1143</ele>
        <time>2019-02-15T16:13:38Z</time>
      </trkpt>
      <trkpt lat="44.75856" lon="3.21577">
        <ele>1133</ele>
        <time>2019-02-15T16:14:38Z</time>
      </trkpt>
      <trkpt lat="44.75794" lon="3.21557">
        <ele>1128</ele>
        <time>2019-02-15T16:15:38Z</time>
      </trkpt>
      <trkpt lat="44.75765" lon="3.21444">
        <ele>1135</ele>
        <time>2019-02-15T16:16:38Z</time>
      </trkpt>
      <trkpt lat="44.75707" lon="3.21398">
        <ele>1138</ele>
        <time>2019-02-15T16:17:38Z</time>
      </trkpt>
      <trkpt lat="44.75475" lon="3.21294">
        <ele>1148</ele>
        <time>2019-02-15T16:18:38Z</time>
      </trkpt>
      <trkpt lat="44.75659" lon="3.21321">
        <ele>1147.07421875</ele>
      </trkpt>
      <trkpt lat="44.75807" lon="3.21321">
        <ele>1153.54296875</ele>
      </trkpt>
      <trkpt lat="44.7592" lon="3.21235">
        <ele>1164.62890625</ele>
      </trkpt>
      <trkpt lat="44.76149" lon="3.21188">
        <ele>1154.41796875</ele>
      </trkpt>
      <trkpt lat="44.76311" lon="3.21134">
        <ele>1163.65625</ele>
      </trkpt>
      <trkpt lat="44.76356" lon="3.21166">
        <ele>1178</ele>
        <time>2019-02-15T16:19:38Z</time>
      </trkpt>
      <trkpt lat="44.76408" lon="3.21037">
        <ele>1179.8828125</ele>
      </trkpt>
      <trkpt lat="44.76396" lon="3.20898">
        <ele>1191</ele>
        <time>2019-02-15T16:20:38Z</time>
      </trkpt>
      <trkpt lat="44.76389" lon="3.20888">
        <ele>1192</ele>
        <time>2019-02-15T16:21:38Z</time>
      </trkpt>
      <trkpt lat="44.76399" lon="3.20896">
        <ele>1192</ele>
        <time>2019-02-15T16:22:38Z</time>
      </trkpt>
      <trkpt lat="44.76403" lon="3.20883">
        <ele>1194</ele>
        <time>2019-02-15T16:23:38Z</time>
      </trkpt>
      <trkpt lat="44.76523" lon="3.20715">
        <ele>1216</ele>
        <time>2019-02-15T16:24:38Z</time>
      </trkpt>
      <trkpt lat="44.767" lon="3.20623">
        <ele>1216</ele>
        <time>2019-02-15T16:25:38Z</time>
      </trkpt>
      <trkpt lat="44.76809" lon="3.20592">
        <ele>1214</ele>
        <time>2019-02-15T16:26:38Z</time>
      </trkpt>
      <trkpt lat="44.76899" lon="3.20561">
        <ele>1212</ele>
        <time>2019-02-15T16:27:38Z</time>
      </trkpt>
      <trkpt lat="44.77005" lon="3.20462">
        <ele>1210</ele>
        <time>2019-02-15T16:28:38Z</time>
      </trkpt>
      <trkpt lat="44.77251" lon="3.2049">
        <ele>1202</ele>
        <time>2019-02-15T16:29:38Z</time>
      </trkpt>
      <trkpt lat="44.77345" lon="3.20444">
        <ele>1201</ele>
        <time>2019-02-15T16:30:38Z</time>
      </trkpt>
      <trkpt lat="44.77414" lon="3.20342">
        <ele>1201</ele>
        <time>2019-02-15T16:31:38Z</time>
      </trkpt>
      <trkpt lat="44.77505" lon="3.20334">
        <ele>1191</ele>
        <time>2019-02-15T16:32:38Z</time>
      </trkpt>
      <trkpt lat="44.77552" lon="3.20465">
        <ele>1186</ele>
        <time>2019-02-15T16:33:38Z</time>
      </trkpt>
      <trkpt lat="44.77588" lon="3.20449">
        <ele>1182</ele>
        <time>2019-02-15T16:34:38Z</time>
      </trkpt>
      <trkpt lat="44.77635" lon="3.2047">
        <ele>1184</ele>
        <time>2019-02-15T16:35:38Z</time>
      </trkpt>
      <trkpt lat="44.77693" lon="3.20439">
        <ele>1187</ele>
        <time>2019-02-15T16:36:38Z</time>
      </trkpt>
      <trkpt lat="44.77812" lon="3.20408">
        <ele>1198</ele>
        <time>2019-02-15T16:37:38Z</time>
      </trkpt>
      <trkpt lat="44.77878" lon="3.20276">
        <ele>1202</ele>
        <time>2019-02-15T16:38:38Z</time>
      </trkpt>
      <trkpt lat="44.78015" lon="3.20051">
        <ele>1201</ele>
        <time>2019-02-15T16:39:38Z</time>
      </trkpt>
      <trkpt lat="44.7816" lon="3.19735">
        <ele>1207</ele>
        <time>2019-02-15T16:40:38Z</time>
      </trkpt>
      <trkpt lat="44.78233" lon="3.19548">
        <ele>1215</ele>
        <time>2019-02-15T16:41:38Z</time>
      </trkpt>
      <trkpt lat="44.78218" lon="3.19398">
        <ele>1218</ele>
        <time>2019-02-15T16:42:38Z</time>
      </trkpt>
      <trkpt lat="44.78175" lon="3.19291">
        <ele>1224</ele>
        <time>2019-02-15T16:43:38Z</time>
      </trkpt>
      <trkpt lat="44.78004" lon="3.19112">
        <ele>1223</ele>
        <time>2019-02-15T16:44:38Z</time>
      </trkpt>
      <trkpt lat="44.77885" lon="3.18939">
        <ele>1226</ele>
        <time>2019-02-15T16:45:38Z</time>
      </trkpt>
      <trkpt lat="44.77736" lon="3.18842">
        <ele>1231</ele>
        <time>2019-02-15T16:46:38Z</time>
      </trkpt>
      <trkpt lat="44.77686" lon="3.1878">
        <ele>1231</ele>
        <time>2019-02-15T16:47:38Z</time>
      </trkpt>
      <trkpt lat="44.77544" lon="3.18819">
        <ele>1232</ele>
        <time>2019-02-15T16:48:38Z</time>
      </trkpt>
      <trkpt lat="44.77356" lon="3.18867">
        <ele>1234</ele>
        <time>2019-02-15T16:49:38Z</time>
      </trkpt>
      <trkpt lat="44.7716" lon="3.18985">
        <ele>1252</ele>
        <time>2019-02-15T16:50:38Z</time>
      </trkpt>
      <trkpt lat="44.77088" lon="3.19122">
        <ele>1259</ele>
        <time>2019-02-15T16:51:38Z</time>
      </trkpt>
      <trkpt lat="44.7699" lon="3.1926">
        <ele>1259</ele>
        <time>2019-02-15T16:52:38Z</time>
      </trkpt>
      <trkpt lat="44.76867" lon="3.19464">
        <ele>1250</ele>
        <time>2019-02-15T16:53:38Z</time>
      </trkpt>
      <trkpt lat="44.76697" lon="3.1976">
        <ele>1238</ele>
        <time>2019-02-15T16:54:38Z</time>
      </trkpt>
      <trkpt lat="44.76519" lon="3.20056">
        <ele>1244</ele>
        <time>2019-02-15T16:55:38Z</time>
      </trkpt>
      <trkpt lat="44.76352" lon="3.20077">
        <ele>1237</ele>
        <time>2019-02-15T16:56:38Z</time>
      </trkpt>
      <trkpt lat="44.75885" lon="3.20403">
        <ele>1224</ele>
        <time>2019-02-15T16:57:38Z</time>
      </trkpt>
      <trkpt lat="44.75606" lon="3.2048">
        <ele>1211</ele>
        <time>2019-02-15T16:58:38Z</time>
      </trkpt>
      <trkpt lat="44.7553" lon="3.20536">
        <ele>1206</ele>
        <time>2019-02-15T16:59:38Z</time>
      </trkpt>
      <trkpt lat="44.75269" lon="3.20567">
        <ele>1191</ele>
        <time>2019-02-15T17:00:38Z</time>
      </trkpt>
      <trkpt lat="44.75156" lon="3.20602">
        <ele>1180</ele>
        <time>2019-02-15T17:01:38Z</time>
      </trkpt>
      <trkpt lat="44.75146" lon="3.20628">
        <ele>1179</ele>
        <time>2019-02-15T17:02:38Z</time>
      </trkpt>
      <trkpt lat="44.75153" lon="3.20646">
        <ele>1179</ele>
        <time>2019-02-15T17:03:38Z</time>
      </trkpt>
      <trkpt lat="44.75149" lon="3.20725">
        <ele>1180</ele>
        <time>2019-02-15T17:04:38Z</time>
      </trkpt>
      <trkpt lat="44.75189" lon="3.20835">
        <ele>1182</ele>
        <time>2019-02-15T17:05:38Z</time>
      </trkpt>
      <trkpt lat="44.75229" lon="3.20898">
        <ele>1179</ele>
        <time>2019-02-15T17:06:38Z</time>
      </trkpt>
      <trkpt lat="44.75341" lon="3.20965">
        <ele>1174</ele>
        <time>2019-02-15T17:07:38Z</time>
      </trkpt>
      <trkpt lat="44.75381" lon="3.21082">
        <ele>1165</ele>
        <time>2019-02-15T17:08:38Z</time>
      </trkpt>
      <trkpt lat="44.75399" lon="3.21128">
        <ele>1161</ele>
        <time>2019-02-15T17:09:38Z</time>
      </trkpt>
      <trkpt lat="44.75396" lon="3.21166">
        <ele>1156</ele>
        <time>2019-02-15T17:10:38Z</time>
      </trkpt>
      <trkpt lat="44.7524" lon="3.21253">
        <ele>1146</ele>
        <time>2019-02-15T17:11:38Z</time>
      </trkpt>
      <trkpt lat="44.75294" lon="3.21531">
        <ele>1137</ele>
        <time>2019-02-15T17:12:38Z</time>
      </trkpt>
      <trkpt lat="44.75294" lon="3.21636">
        <ele>1125</ele>
        <time>2019-02-15T17:13:38Z</time>
      </trkpt>
      <trkpt lat="44.74932" lon="3.22026">
        <ele>1107</ele>
        <time>2019-02-15T17:14:38Z</time>
      </trkpt>
      <trkpt lat="44.74819" lon="3.22243">
        <ele>1107</ele>
        <time>2019-02-15T17:15:38Z</time>
      </trkpt>
      <trkpt lat="44.74841" lon="3.22383">
        <ele>1098.5625</ele>
      </trkpt>
      <trkpt lat="44.74743" lon="3.22682">
        <ele>1083</ele>
        <time>2019-02-15T17:16:38Z</time>
      </trkpt>
      <trkpt lat="44.74805" lon="3.22705">
        <ele>1077</ele>
        <time>2019-02-15T17:17:38Z</time>
      </trkpt>
      <trkpt lat="44.74841" lon="3.22761">
        <ele>1076</ele>
        <time>2019-02-15T17:18:38Z</time>
      </trkpt>
      <trkpt lat="44.74856" lon="3.23019">
        <ele>1065</ele>
        <time>2019-02-15T17:19:38Z</time>
      </trkpt>
      <trkpt lat="44.74827" lon="3.23123">
        <ele>1063</ele>
        <time>2019-02-15T17:20:38Z</time>
      </trkpt>
      <trkpt lat="44.74827" lon="3.23264">
        <ele>1068</ele>
        <time>2019-02-15T17:21:38Z</time>
      </trkpt>
      <trkpt lat="44.74924" lon="3.23348">
        <ele>1054</ele>
        <time>2019-02-15T17:22:38Z</time>
      </trkpt>
      <trkpt lat="44.74986" lon="3.23422">
        <ele>1044</ele>
        <time>2019-02-15T17:23:38Z</time>
      </trkpt>
      <trkpt lat="44.74975" lon="3.23744">
        <ele>1051</ele>
        <time>2019-02-15T17:24:38Z</time>
      </trkpt>
      <trkpt lat="44.74932" lon="3.23902">
        <ele>1044</ele>
        <time>2019-02-15T17:25:38Z</time>
      </trkpt>
      <trkpt lat="44.7499" lon="3.24057">
        <ele>1049</ele>
        <time>2019-02-15T17:26:38Z</time>
      </trkpt>
      <trkpt lat="44.7499" lon="3.24116">
        <ele>1045</ele>
        <time>2019-02-15T17:27:38Z</time>
      </trkpt>
      <trkpt lat="44.74986" lon="3.24246">
        <ele>1038</ele>
        <time>2019-02-15T17:28:38Z</time>
      </trkpt>
      <trkpt lat="44.75022" lon="3.24333">
        <ele>1040</ele>
        <time>2019-02-15T17:29:38Z</time>
      </trkpt>
      <trkpt lat="44.75019" lon="3.24445">
        <ele>1044</ele>
        <time>2019-02-15T17:30:38Z</time>
      </trkpt>
      <trkpt lat="44.74979" lon="3.24517">
        <ele>1043</ele>
        <time>2019-02-15T17:31:38Z</time>
      </trkpt>
      <trkpt lat="44.74986" lon="3.24532">
        <ele>1045</ele>
        <time>2019-02-15T17:32:38Z</time>
      </trkpt>
      <trkpt lat="44.74961" lon="3.24542">
        <ele>1044</ele>
        <time>2019-02-15T17:33:38Z</time>
      </trkpt>
      <trkpt lat="44.74921" lon="3.24741">
        <ele>1033</ele>
        <time>2019-02-15T17:34:38Z</time>
      </trkpt>
      <trkpt lat="44.74903" lon="3.24951">
        <ele>1030</ele>
        <time>2019-02-15T17:35:38Z</time>
      </trkpt>
      <trkpt lat="44.7491" lon="3.25037">
        <ele>1020</ele>
        <time>2019-02-15T17:36:38Z</time>
      </trkpt>
      <trkpt lat="44.74968" lon="3.25076">
        <ele>1015</ele>
        <time>2019-02-15T17:37:38Z</time>
      </trkpt>
      <trkpt lat="44.74935" lon="3.2503">
        <ele>1023</ele>
        <time>2019-02-15T17:38:38Z</time>
      </trkpt>
      <trkpt lat="44.74602" lon="3.25213">
        <ele>1024</ele>
        <time>2019-02-15T17:39:38Z</time>
      </trkpt>
      <trkpt lat="44.74163" lon="3.25772">
        <ele>1053.16796875</ele>
      </trkpt>
      <trkpt lat="44.74118" lon="3.26025">
        <ele>1038.76953125</ele>
      </trkpt>
      <trkpt lat="44.74177" lon="3.25772">
        <ele>1065</ele>
        <time>2019-02-15T17:40:38Z</time>
      </trkpt>
      <trkpt lat="44.74312" lon="3.25609">
        <ele>1064.1484375</ele>
      </trkpt>
      <trkpt lat="44.745" lon="3.25674">
        <ele>1061</ele>
        <time>2019-02-15T17:41:38Z</time>
      </trkpt>
      <trkpt lat="44.74644" lon="3.25687">
        <ele>1052</ele>
        <time>2019-02-15T17:42:38Z</time>
      </trkpt>
      <trkpt lat="44.74747" lon="3.25674">
        <ele>1044</ele>
        <time>2019-02-15T17:43:38Z</time>
      </trkpt>
      <trkpt lat="44.74869" lon="3.25791">
        <ele>1039</ele>
        <time>2019-02-15T17:44:38Z</time>
      </trkpt>
      <trkpt lat="44.74985" lon="3.25798">
        <ele>1037</ele>
        <time>2019-02-15T17:45:38Z</time>
      </trkpt>
      <trkpt lat="44.75165" lon="3.25882">
        <ele>1037</ele>
        <time>2019-02-15T17:46:38Z</time>
      </trkpt>
      <trkpt lat="44.75237" lon="3.2596">
        <ele>1031</ele>
        <time>2019-02-15T17:47:38Z</time>
      </trkpt>
      <trkpt lat="44.75318" lon="3.26032">
        <ele>1039</ele>
        <time>2019-02-15T17:48:38Z</time>
      </trkpt>
      <trkpt lat="44.7543" lon="3.26045">
        <ele>1027</ele>
        <time>2019-02-15T17:49:38Z</time>
      </trkpt>
      <trkpt lat="44.75578" lon="3.26246">
        <ele>1020</ele>
        <time>2019-02-15T17:50:38Z</time>
      </trkpt>
      <trkpt lat="44.75583" lon="3.26318">
        <ele>1006</ele>
        <time>2019-02-15T17:51:38Z</time>
      </trkpt>
      <trkpt lat="44.75614" lon="3.2635">
        <ele>988</ele>
        <time>2019-02-15T17:52:38Z</time>
      </trkpt>
      <trkpt lat="44.75641" lon="3.26467">
        <ele>979</ele>
        <time>2019-02-15T17:53:38Z</time>
      </trkpt>
      <trkpt lat="44.75682" lon="3.26577">
        <ele>975</ele>
        <time>2019-02-15T17:54:38Z</time>
      </trkpt>
      <trkpt lat="44.75686" lon="3.26649">
        <ele>978.19140625</ele>
      </trkpt>
      <trkpt lat="44.75717" lon="3.26766">
        <ele>998.734375</ele>
      </trkpt>
    </trkseg>
  </trk>
</gpx>